Você está realizando uma questão de Piloto Privado de Avião - Meteorologia.

No METAR SBSP 101000Z 20007KT 3000 -DZ BR BKN008 OVC080 09/09 Q1022, tem-se:

Você acertou a questão!

A resposta correta é a letra C

Explicação da resposta correta:

No código METAR "SBSP 101000Z 20007KT 3000 -DZ BR BKN008 OVC080 09/09 Q1022", as informações fornecidas indicam as condições meteorológicas no Aeroporto de Congonhas (SBSP) em um momento específico. A parte "BKN008 OVC080" indica a quantidade e a altura das nuvens. "BKN008" significa "broken clouds" (nuvens quebradas) a uma altura de 800 pés (240 metros) acima do nível do solo. "OVC080" significa "overcast clouds" (nuvens encobrindo totalmente o céu) a uma altura de 8.000 pés (aproximadamente 2.400 metros).

OPS...

Parece que você ainda não possui nenhum plano de assinatura conosco. Não perca tempo! Assine agora um dos nossos planos para ter acesso imediato às respostas. Adquira já!

plugins premium WordPress